createdAt,value
2023-01-11T00:01:00.265Z,95968.38
2023-01-11T00:02:02.494Z,95962.97
2023-01-11T00:03:06.457Z,95957.56
2023-01-11T00:04:08.789Z,95952.94
2023-01-11T00:05:12.066Z,95956.44
2023-01-11T00:06:15.113Z,95952.94
2023-01-11T00:07:17.259Z,95959.13
2023-01-11T00:08:22.072Z,95951.81
2023-01-11T00:09:24.225Z,95956.44
2023-01-11T00:10:27.267Z,95949.09
2023-01-11T00:11:29.414Z,95945.63
2023-01-11T00:12:32.675Z,95949.88
2023-01-11T00:13:35.689Z,95951.03
2023-01-11T00:14:37.683Z,95941.75
2023-01-11T00:15:40.859Z,95944.44
2023-01-11T00:16:44.493Z,95950.63
2023-01-11T00:17:47.565Z,95940.59
2023-01-11T00:18:49.589Z,95940.59
2023-01-11T00:19:52.751Z,95943.28
2023-01-11T00:20:54.738Z,95940.59
2023-01-11T00:21:57.824Z,95941.38
2023-01-11T00:22:59.861Z,95935.19
2023-01-11T00:24:03.023Z,95939.44
2023-01-11T00:25:05.882Z,95935.97
2023-01-11T00:26:12.305Z,95936.75
2023-01-11T00:27:14.420Z,95935.59
2023-01-11T00:28:17.443Z,95939.44
2023-01-11T00:29:19.447Z,95936.75
2023-01-11T00:30:22.657Z,95932.47
2023-01-11T00:31:24.799Z,95937.88
2023-01-11T00:32:29.294Z,95936.75
2023-01-11T00:33:31.595Z,95930.94
2023-01-11T00:34:34.591Z,95932.47
2023-01-11T00:35:36.638Z,95931.34
2023-01-11T00:36:39.674Z,95931.34
2023-01-11T00:37:41.721Z,95929.78
2023-01-11T00:38:46.724Z,95930.16
2023-01-11T00:39:48.824Z,95920.09
2023-01-11T00:40:51.875Z,95916.63
2023-01-11T00:42:12.287Z,95921.28
2023-01-11T00:43:41.243Z,95917.00
2023-01-11T00:45:01.781Z,95908.88
2023-01-11T00:46:22.307Z,95908.88
2023-01-11T00:47:42.871Z,95911.59
2023-01-11T00:48:47.231Z,95914.28
2023-01-11T00:49:49.306Z,95915.44
2023-01-11T00:50:54.939Z,95920.88
2023-01-11T00:51:56.983Z,95923.56
2023-01-11T00:53:00.588Z,95920.88
2023-01-11T00:54:04.551Z,95921.63
2023-01-11T00:55:08.656Z,95926.28
2023-01-11T00:56:10.688Z,95914.66
2023-01-11T00:57:13.725Z,95924.69
2023-01-11T00:58:16.221Z,95920.88
2023-01-11T00:59:19.284Z,95922.00
2023-01-11T01:00:22.234Z,95919.28
2023-01-11T01:01:25.287Z,95925.09
2023-01-11T01:02:27.419Z,95928.97
2023-01-11T01:03:30.534Z,95928.19
2023-01-11T01:04:34.074Z,95929.75
2023-01-11T01:05:39.206Z,95925.09
2023-01-11T01:06:41.304Z,95927.81
2023-01-11T01:07:44.684Z,95924.75
2023-01-11T01:08:46.951Z,95933.63
2023-01-11T01:09:50.041Z,95926.69
2023-01-11T01:10:52.339Z,95925.88
2023-01-11T01:11:55.522Z,95929.38
2023-01-11T01:13:16.017Z,95932.09
2023-01-11T01:14:28.968Z,95932.09
2023-01-11T01:15:31.588Z,95933.63
2023-01-11T01:16:34.830Z,95941.38
2023-01-11T01:17:37.910Z,95931.69
2023-01-11T01:18:40.007Z,95933.63
2023-01-11T01:19:44.625Z,95935.19
2023-01-11T01:20:50.396Z,95932.47
2023-01-11T01:21:53.489Z,95938.69
2023-01-11T01:22:55.642Z,95928.63
2023-01-11T01:23:58.683Z,95934.03
2023-01-11T01:25:00.905Z,95936.75
2023-01-11T01:26:04.566Z,95931.34
2023-01-11T01:27:06.651Z,95938.28
2023-01-11T01:28:09.717Z,95932.13
2023-01-11T01:29:11.991Z,95930.19
2023-01-11T01:30:15.759Z,95932.13
2023-01-11T01:31:17.896Z,95930.97
2023-01-11T01:32:22.342Z,95928.28
2023-01-11T01:33:24.932Z,95932.88
2023-01-11T01:34:28.043Z,95928.28
2023-01-11T01:35:31.522Z,95929.03
2023-01-11T01:36:34.752Z,95927.47
2023-01-11T01:37:36.848Z,95922.88
2023-01-11T01:38:39.876Z,95922.47
2023-01-11T01:39:42.335Z,95929.03
2023-01-11T01:40:47.309Z,95929.03
2023-01-11T01:41:49.299Z,95929.81
2023-01-11T01:42:55.196Z,95919.00
2023-01-11T01:43:59.475Z,95925.94
2023-01-11T10:33:57.484Z,95634.72
2023-01-11T10:35:17.994Z,95637.03
2023-01-11T10:36:41.560Z,95625.38
2023-01-11T10:38:02.374Z,95627.72
2023-01-11T10:39:27.157Z,95633.91
2023-01-11T10:40:58.690Z,95631.19
2023-01-11T10:42:10.464Z,95632.34
2023-01-11T10:43:21.775Z,95626.91
2023-01-11T10:44:32.774Z,95636.22
2023-01-11T10:45:41.381Z,95631.97
2023-01-11T10:46:48.143Z,95636.22
2023-01-11T10:47:58.186Z,95628.44
2023-01-11T10:49:21.348Z,95635.41
2023-01-11T10:50:29.075Z,95632.31
2023-01-11T10:51:38.740Z,95629.22
2023-01-11T10:52:51.907Z,95614.44
2023-01-11T10:55:13.205Z,95616.00
2023-01-11T10:56:24.487Z,95616.78
2023-01-11T10:57:59.389Z,95609.41
2023-01-11T10:59:25.717Z,95610.16
2023-01-11T11:00:36.603Z,95613.66
2023-01-11T11:01:51.426Z,95607.84
2023-01-11T11:03:23.191Z,95608.59
2023-01-11T11:04:55.530Z,95612.88
2023-01-11T11:06:07.501Z,95606.25
2023-01-11T11:07:18.302Z,95596.97
2023-01-11T11:08:28.273Z,95598.13
2023-01-11T11:09:38.612Z,95603.13
2023-01-11T11:10:49.603Z,95601.94
2023-01-11T11:11:57.301Z,95601.94
2023-01-11T11:13:09.272Z,95600.75
2023-01-11T11:14:16.194Z,95602.31
2023-01-11T11:15:23.652Z,95598.81
2023-01-11T11:16:42.391Z,95597.25
2023-01-11T11:17:50.402Z,95591.44
2023-01-11T11:18:55.647Z,95588.72
2023-01-11T11:20:00.480Z,95594.53
2023-01-11T11:21:10.292Z,95589.47
2023-01-11T11:22:14.106Z,95594.53
2023-01-11T11:23:19.325Z,95587.91
2023-01-11T11:24:27.802Z,95596.06
2023-01-11T11:25:33.676Z,95592.97
2023-01-11T11:26:41.640Z,95594.91
2023-01-11T11:27:49.663Z,95593.72
2023-01-11T11:29:04.398Z,95588.69
2023-01-11T11:30:13.928Z,95579.38
2023-01-11T11:31:16.043Z,95580.91
2023-01-11T11:32:24.174Z,95577.44
2023-01-11T11:33:34.766Z,95581.72
2023-01-11T11:34:37.815Z,95579.00
2023-01-11T11:35:45.716Z,95581.72
2023-01-11T11:36:50.212Z,95583.63
2023-01-11T11:37:55.772Z,95576.22
2023-01-11T11:39:05.441Z,95573.50
2023-01-11T11:40:29.983Z,95570.75
2023-01-11T11:41:48.340Z,95565.28
2023-01-11T11:42:56.403Z,95558.69
2023-01-11T11:44:15.893Z,95565.66
2023-01-11T11:45:18.474Z,95564.50
2023-01-11T11:46:27.161Z,95564.50
2023-01-11T11:47:29.220Z,95560.19
2023-01-11T11:48:34.284Z,95562.09
2023-01-11T11:49:38.328Z,95558.22
2023-01-11T11:50:45.274Z,95561.31
2023-01-11T11:51:49.471Z,95555.44
2023-01-11T11:52:54.959Z,95556.59
2023-01-11T11:53:58.216Z,95548.84
2023-01-11T11:55:01.430Z,95551.97
2023-01-11T11:56:16.002Z,95545.38
2023-01-11T11:57:24.635Z,95546.97
2023-01-11T11:58:27.460Z,95550.84
2023-01-11T11:59:33.204Z,95541.16
2023-01-11T12:00:40.613Z,95541.16
2023-01-11T12:01:47.190Z,95537.66
2023-01-11T12:02:53.632Z,95537.25
2023-01-11T12:04:00.796Z,95534.13
2023-01-11T12:05:08.451Z,95544.63
2023-01-11T12:06:12.982Z,95543.44
2023-01-11T12:07:19.602Z,95539.56
2023-01-11T12:08:24.539Z,95537.22
2023-01-11T12:09:31.385Z,95535.66
2023-01-11T12:10:34.560Z,95538.81
2023-01-11T12:11:42.228Z,95537.25
2023-01-11T12:12:52.783Z,95531.41
2023-01-11T12:14:03.353Z,95535.31
2023-01-11T12:15:19.384Z,95533.38
2023-01-11T12:16:24.147Z,95531.81
2023-01-11T12:17:27.419Z,95538.03
2023-01-11T12:18:33.513Z,95533.38
2023-01-11T12:19:45.104Z,95532.56
2023-01-11T18:15:33.959Z,95830.81
2023-01-11T18:16:36.229Z,95834.69
2023-01-11T18:17:40.646Z,95833.53
2023-01-11T18:18:44.742Z,95830.84
2023-01-11T18:19:47.823Z,95838.22
2023-01-11T18:20:49.988Z,95831.59
2023-01-11T18:21:55.597Z,95833.94
2023-01-11T18:23:05.162Z,95840.94
2023-01-11T18:24:45.085Z,95841.69
2023-01-11T18:25:47.340Z,95850.22
2023-01-11T18:27:06.444Z,95846.34
2023-01-11T18:28:27.279Z,95847.09
2023-01-11T18:29:49.366Z,95848.66
2023-01-11T18:30:56.591Z,95844.75
2023-01-11T18:31:59.849Z,95851.75
2023-01-11T18:33:04.906Z,95847.09
2023-01-11T18:34:07.544Z,95847.88
2023-01-11T18:35:18.918Z,95853.69
2023-01-11T18:36:23.139Z,95853.69
2023-01-11T18:37:26.243Z,95853.69
2023-01-11T18:38:30.155Z,95856.41
2023-01-11T18:39:33.601Z,95849.44
2023-01-11T18:40:38.226Z,95856.41
2023-01-11T18:42:01.638Z,95852.16
2023-01-11T18:43:04.585Z,95855.28
2023-01-11T18:44:10.689Z,95852.56
2023-01-11T18:45:16.067Z,95850.22
2023-01-11T18:46:19.612Z,95861.84
2023-01-11T18:47:23.938Z,95856.84
2023-01-11T18:48:25.936Z,95861.09
2023-01-11T18:49:28.927Z,95861.84
2023-01-11T18:50:32.000Z,95862.28
2023-01-11T18:51:39.516Z,95862.28
2023-01-11T18:52:42.634Z,95862.66
2023-01-11T18:53:45.627Z,95857.22
2023-01-11T18:54:48.987Z,95862.66
2023-01-11T18:55:52.055Z,95863.44
2023-01-11T18:56:54.145Z,95861.47
2023-01-11T18:57:58.437Z,95861.47
2023-01-11T18:59:00.876Z,95858.75
2023-01-11T19:00:05.160Z,95864.97
2023-01-11T19:01:07.914Z,95868.44
2023-01-11T19:02:25.583Z,95861.06
2023-01-11T19:03:27.654Z,95861.06
2023-01-11T19:04:31.043Z,95863.41
2023-01-11T19:05:34.164Z,95868.06
2023-01-11T19:06:36.169Z,95864.16
2023-01-11T19:07:39.208Z,95872.31
2023-01-11T19:08:41.255Z,95870.78
2023-01-11T19:09:45.526Z,95870.38
2023-01-11T19:10:50.504Z,95875.44
2023-01-11T19:11:53.437Z,95885.16
2023-01-11T19:12:58.194Z,95891.34
2023-01-11T19:14:00.200Z,95887.47
2023-01-11T19:15:03.309Z,95891.34
2023-01-11T19:16:07.530Z,95893.69
2023-01-11T19:17:11.338Z,95897.19
2023-01-11T19:18:16.462Z,95891.75
2023-01-11T19:19:18.395Z,95894.47
2023-01-11T19:20:21.366Z,95899.91
2023-01-11T19:21:23.392Z,95893.69
2023-01-11T19:22:26.933Z,95905.34
2023-01-11T19:23:30.522Z,95899.91
2023-01-11T19:24:33.746Z,95902.63
2023-01-11T19:25:36.736Z,95902.63
2023-01-11T19:26:39.134Z,95901.47
2023-01-11T19:27:42.217Z,95907.66
2023-01-11T19:28:44.169Z,95904.53
2023-01-11T19:29:47.274Z,95903.75
2023-01-11T19:30:49.418Z,95904.53
2023-01-11T19:31:55.579Z,95911.53
2023-01-11T19:32:58.553Z,95908.44
2023-01-11T19:34:02.918Z,95907.63
2023-01-11T19:35:08.193Z,95910.34
2023-01-11T19:36:10.949Z,95906.09
2023-01-11T19:37:13.928Z,95913.06
2023-01-11T19:38:18.334Z,95906.88
2023-01-11T19:39:21.305Z,95918.53
2023-01-11T19:40:25.612Z,95915.41
2023-01-11T19:41:48.626Z,95920.09
2023-01-11T19:42:53.964Z,95913.88
2023-01-11T19:43:55.908Z,95925.53
2023-01-11T19:45:02.565Z,95920.09
2023-01-11T19:46:05.639Z,95931.72
2023-01-11T19:47:12.719Z,95920.84
2023-01-11T19:48:16.191Z,95913.06
2023-01-11T19:49:19.564Z,95930.97
2023-01-11T19:50:22.622Z,95920.47
2023-01-11T19:51:24.600Z,95932.13
2023-01-11T19:52:28.415Z,95919.69
2023-01-11T19:53:31.014Z,95930.97
2023-01-11T19:54:34.008Z,95918.53
2023-01-11T19:55:35.949Z,95920.09
2023-01-11T19:56:38.925Z,95920.84
2023-01-11T19:57:41.972Z,95931.72
2023-01-11T19:58:43.958Z,95932.50
2023-01-11T19:59:47.111Z,95934.44
2023-01-11T20:00:50.111Z,95922.81
2023-01-11T20:01:52.217Z,95934.44
2023-01-11T20:02:55.186Z,95934.44
2023-01-11T20:03:58.790Z,95929.78
2023-01-11T20:05:03.197Z,95916.19
2023-01-11T20:06:08.200Z,95933.69
2023-01-11T20:07:12.598Z,95930.97
2023-01-11T20:08:15.827Z,95933.69
2023-01-11T20:09:19.708Z,95937.94
2023-01-11T20:10:22.763Z,95939.13
2023-01-11T20:11:25.282Z,95936.41
2023-01-11T20:12:28.345Z,95939.13
2023-01-11T20:13:30.338Z,95939.13
2023-01-11T20:14:33.909Z,95938.72
2023-01-11T20:15:38.557Z,95944.16
2023-01-11T20:16:41.639Z,95942.59
2023-01-11T20:17:44.888Z,95950.75
2023-01-11T20:18:53.085Z,95943.41
2023-01-11T20:19:56.193Z,95948.84
2023-01-11T20:21:00.119Z,95942.59
2023-01-11T20:22:03.336Z,95943.78
2023-01-11T20:23:05.334Z,95948.84
2023-01-11T20:24:08.799Z,95959.66
2023-01-11T20:25:12.498Z,95948.06
2023-01-11T20:26:16.251Z,95960.09
2023-01-11T20:27:19.381Z,95961.81
2023-01-11T20:28:21.380Z,95960.28
2023-01-11T20:29:24.505Z,95968.91
2023-01-11T20:30:26.450Z,95962.78
2023-01-11T20:31:32.960Z,95968.34
2023-01-11T20:32:41.923Z,95962.94
2023-01-11T20:33:44.803Z,95963.03
2023-01-11T20:34:47.787Z,95955.31
2023-01-11T20:35:49.868Z,95961.25
2023-01-11T20:36:54.258Z,95957.41
2023-01-11T20:37:57.269Z,95962.16
2023-01-11T20:38:59.295Z,95962.56
2023-01-11T20:40:02.338Z,95970.00
2023-01-11T20:41:08.160Z,95968.84
2023-01-11T20:42:12.574Z,95968.50
2023-01-11T20:43:14.634Z,95967.34
2023-01-11T20:44:19.362Z,95971.25
2023-01-11T20:45:22.542Z,95975.16
2023-01-11T20:46:24.621Z,95981.38
2023-01-11T20:47:27.681Z,95976.72
2023-01-11T20:48:30.276Z,95982.19
2023-01-11T20:49:33.296Z,95979.84
2023-01-11T20:50:36.348Z,95990.34
2023-01-11T20:51:39.838Z,95985.69
2023-01-11T20:52:44.768Z,95986.84
2023-01-11T20:53:47.176Z,95990.75
2023-01-11T20:54:50.229Z,95982.19
2023-01-11T20:55:52.390Z,95989.59
2023-01-11T20:56:57.815Z,95987.25
2023-01-11T20:58:01.822Z,95981.44
2023-01-11T20:59:04.354Z,95986.88
2023-01-11T21:01:15.357Z,95988.03
2023-01-11T21:02:18.350Z,95982.59
2023-01-11T21:03:23.896Z,95990.00
2023-01-11T21:04:29.177Z,95983.75
2023-01-11T21:05:31.153Z,95987.28
2023-01-11T21:06:36.464Z,95983.75
2023-01-11T21:07:38.440Z,95977.56
2023-01-11T21:08:42.972Z,95979.50
2023-01-11T21:09:44.992Z,95980.69
2023-01-11T21:10:48.027Z,95984.56
2023-01-11T21:11:53.784Z,95988.84
2023-01-11T21:12:57.697Z,95984.56
2023-01-11T21:14:01.988Z,95970.94
2023-01-11T21:15:08.702Z,95968.22
2023-01-11T21:16:12.677Z,95963.56
2023-01-11T21:17:15.691Z,95960.06
2023-01-11T21:18:17.680Z,95968.22
2023-01-11T21:19:21.086Z,95967.09
2023-01-11T21:20:23.129Z,95969.81
2023-01-11T21:21:27.098Z,95966.69
2023-01-11T21:22:31.169Z,95965.50
2023-01-11T21:23:35.799Z,95961.25
2023-01-11T21:24:41.113Z,95962.03
2023-01-11T21:25:43.104Z,95965.50
2023-01-11T21:26:48.028Z,95972.13
2023-01-11T21:27:50.240Z,95977.56
2023-01-11T21:28:55.699Z,95978.34
2023-01-11T21:29:58.737Z,95982.22
2023-01-11T21:31:02.131Z,95979.50
2023-01-11T21:32:05.528Z,95975.22
2023-01-11T21:33:07.663Z,95984.16
2023-01-11T21:34:11.755Z,95986.88
2023-01-11T21:35:14.824Z,95990.78
2023-01-11T21:36:18.159Z,95995.03
2023-01-11T21:37:24.616Z,95988.06
2023-01-11T21:38:26.648Z,95992.31
2023-01-11T21:39:29.660Z,95996.22
2023-01-11T21:40:34.170Z,96004.38
2023-01-11T21:41:54.464Z,96012.53
2023-01-11T21:42:57.597Z,96004.38
2023-01-11T21:43:59.709Z,96010.97
2023-01-11T21:45:02.815Z,96007.84
2023-01-11T21:46:07.531Z,96016.81
2023-01-11T21:47:11.489Z,96010.56
2023-01-11T21:48:13.535Z,96014.09
2023-01-11T21:49:17.684Z,96009.44
2023-01-11T21:50:19.769Z,96004.00
2023-01-11T21:51:22.780Z,96010.97
2023-01-11T21:52:25.815Z,96002.81
2023-01-11T21:53:30.405Z,96007.47
2023-01-11T21:54:33.421Z,96002.81
2023-01-11T21:55:36.789Z,96010.97
2023-01-11T21:56:41.727Z,96004.75
2023-01-11T21:57:44.709Z,96007.09
2023-01-11T21:58:46.936Z,96012.53
2023-01-11T21:59:49.901Z,96016.41
2023-01-11T22:00:52.236Z,96017.19
2023-01-11T22:01:55.307Z,96021.84
2023-01-11T22:02:57.323Z,96021.84
2023-01-11T22:04:00.582Z,96021.84
2023-01-11T22:05:02.591Z,96017.19
2023-01-11T22:06:06.506Z,96012.53
2023-01-11T22:07:09.571Z,96026.13
2023-01-11T22:08:11.745Z,96022.63
2023-01-11T22:09:14.697Z,96022.63
2023-01-11T22:10:17.841Z,96023.41
2023-01-11T22:11:21.168Z,96020.69
2023-01-11T22:12:24.151Z,96013.69
2023-01-11T22:13:26.468Z,96023.41
2023-01-11T22:14:30.514Z,96019.13
2023-01-11T22:15:32.563Z,96026.13
2023-01-11T22:16:36.268Z,96026.13
2023-01-11T22:17:38.355Z,96031.94
2023-01-11T22:18:41.733Z,96032.72
2023-01-11T22:19:44.732Z,96032.72
2023-01-11T22:20:47.064Z,96033.91
2023-01-11T22:21:49.977Z,96031.19
2023-01-11T22:22:51.970Z,96027.69
2023-01-11T22:23:56.127Z,96035.03
2023-01-11T22:24:58.173Z,96031.56
2023-01-11T22:26:04.420Z,96029.59
2023-01-11T22:27:08.775Z,96033.50
2023-01-11T22:28:10.822Z,96037.75
2023-01-11T22:29:15.140Z,96049.81
2023-01-11T22:30:18.640Z,96054.06
2023-01-11T22:31:20.897Z,96052.53
2023-01-11T22:32:24.064Z,96056.03
2023-01-11T22:33:26.074Z,96057.22
2023-01-11T22:34:29.405Z,96062.66
2023-01-11T22:35:31.415Z,96059.16
2023-01-11T22:36:34.558Z,96064.59
2023-01-11T22:37:37.643Z,96059.16
2023-01-11T22:38:39.611Z,96066.13
2023-01-11T22:39:42.551Z,96060.69
2023-01-11T22:40:44.576Z,96068.84
2023-01-11T22:41:48.684Z,96075.47
2023-01-11T22:42:55.969Z,96074.66
2023-01-11T22:43:58.119Z,96075.09
2023-01-11T22:45:01.133Z,96068.84
2023-01-11T22:46:03.165Z,96071.97
2023-01-11T22:47:06.398Z,96071.19
2023-01-11T22:48:08.364Z,96070.41
2023-01-11T22:49:11.645Z,96073.91
2023-01-11T22:50:13.745Z,96077.41
2023-01-11T22:51:18.132Z,96084.00
2023-01-11T22:52:22.466Z,96078.56
2023-01-11T22:53:24.497Z,96073.13
2023-01-11T22:54:27.493Z,96078.16
2023-01-11T22:55:29.507Z,96080.50
2023-01-11T22:56:33.406Z,96084.00
2023-01-11T22:57:36.390Z,96084.00
2023-01-11T22:58:39.836Z,96091.00
2023-01-11T22:59:42.859Z,96087.09
2023-01-11T23:00:44.807Z,96086.34
2023-01-11T23:01:47.831Z,96089.44
2023-01-11T23:02:49.803Z,96092.16
2023-01-11T23:03:53.534Z,96087.13
2023-01-11T23:04:56.585Z,96091.75
2023-01-11T23:05:58.537Z,96091.75
2023-01-11T23:07:01.502Z,96089.03
2023-01-11T23:08:03.679Z,96090.22
2023-01-11T23:09:07.650Z,96099.13
2023-01-11T23:10:13.643Z,96088.69
2023-01-11T23:11:39.792Z,96095.25
2023-01-11T23:13:00.322Z,96092.53
2023-01-11T23:14:05.716Z,96088.28
2023-01-11T23:15:09.699Z,96091.38
2023-01-11T23:16:13.139Z,96100.31
2023-01-11T23:17:19.360Z,96094.09
2023-01-11T23:18:21.813Z,96093.31
2023-01-11T23:19:25.002Z,96097.19
2023-01-11T23:20:26.937Z,96095.28
2023-01-11T23:21:30.226Z,96102.63
2023-01-11T23:22:33.225Z,96105.34
2023-01-11T23:23:35.314Z,96101.47
2023-01-11T23:24:39.048Z,96099.13
2023-01-11T23:25:41.154Z,96098.38
2023-01-11T23:26:45.100Z,96098.75
2023-01-11T23:27:47.180Z,96102.63
2023-01-11T23:28:51.547Z,96102.63
2023-01-11T23:29:54.857Z,96100.72
2023-01-11T23:30:57.837Z,96093.31
2023-01-11T23:32:01.029Z,96096.81
2023-01-11T23:33:03.042Z,96101.06
2023-01-11T23:34:08.523Z,96094.09
2023-01-11T23:35:10.719Z,96103.78
2023-01-11T23:36:14.457Z,96096.44
2023-01-11T23:37:17.553Z,96104.59
2023-01-11T23:38:19.452Z,96101.88
2023-01-11T23:39:23.701Z,96106.50
2023-01-11T23:40:25.755Z,96104.97
2023-01-11T23:41:48.454Z,96100.31
2023-01-11T23:42:51.373Z,96104.19
2023-01-11T23:43:53.458Z,96106.16
2023-01-11T23:44:58.707Z,96102.63
2023-01-11T23:46:23.372Z,96103.81
2023-01-11T23:47:29.450Z,96103.81
2023-01-11T23:48:31.768Z,96108.06
2023-01-11T23:49:34.706Z,96109.25
2023-01-11T23:50:37.667Z,96110.00
2023-01-11T23:51:39.683Z,96110.78
2023-01-11T23:52:42.621Z,96115.81
2023-01-11T23:53:44.839Z,96111.94
2023-01-11T23:54:48.103Z,96118.94
2023-01-11T23:55:54.598Z,96111.97
2023-01-11T23:56:58.232Z,96106.13
2023-01-11T23:58:09.191Z,96113.50
2023-01-11T23:59:12.652Z,96109.97
